createdAt,value
2023-02-15T00:02:04.249Z,23.13
2023-02-15T00:07:06.255Z,23.67
2023-02-15T00:12:09.217Z,22.92
2023-02-15T00:17:12.377Z,22.80
2023-02-15T00:22:14.178Z,22.25
2023-02-15T00:27:16.309Z,22.52
2023-02-15T00:32:19.608Z,21.75
2023-02-15T00:37:21.425Z,23.08
2023-02-15T00:42:23.277Z,22.65
2023-02-15T00:47:26.378Z,23.17
2023-02-15T00:52:28.349Z,22.20
2023-02-15T00:57:31.019Z,23.40
2023-02-15T01:02:32.928Z,22.50
2023-02-15T01:07:36.190Z,23.90
2023-02-15T01:12:42.972Z,23.17
2023-02-15T01:17:46.799Z,22.40
2023-02-15T01:22:51.821Z,21.35
2023-02-15T01:27:54.474Z,21.70
2023-02-15T01:32:56.500Z,22.67
2023-02-15T01:37:59.340Z,21.83
2023-02-15T01:43:03.367Z,22.55
2023-02-15T01:48:29.794Z,22.80
2023-02-15T01:54:12.494Z,21.88
2023-02-15T01:59:21.222Z,22.30
2023-02-15T02:04:32.922Z,22.27
2023-02-15T02:09:36.774Z,22.95
2023-02-15T02:14:40.740Z,22.80
2023-02-15T02:20:16.212Z,22.30
2023-02-15T02:25:30.082Z,22.27
2023-02-15T02:30:41.440Z,21.30
2023-02-15T02:35:58.480Z,20.88
2023-02-15T02:41:15.500Z,21.30
2023-02-15T02:46:41.471Z,20.77
2023-02-15T02:51:43.287Z,22.20
2023-02-15T02:56:49.743Z,21.85
2023-02-15T03:02:03.753Z,20.48
2023-02-15T03:07:14.063Z,20.50
2023-02-15T03:12:22.791Z,20.20
2023-02-15T03:17:29.004Z,19.48
2023-02-15T03:22:38.190Z,20.52
2023-02-15T03:27:45.064Z,18.98
2023-02-15T03:32:49.157Z,19.88
2023-02-15T03:38:02.891Z,20.00
2023-02-15T03:43:22.738Z,18.88
2023-02-15T03:48:31.394Z,18.77
2023-02-15T03:53:33.444Z,17.90
2023-02-15T03:58:53.821Z,17.63
2023-02-15T04:04:08.878Z,20.50
2023-02-15T04:09:30.751Z,17.77
2023-02-15T04:14:51.312Z,17.75
2023-02-15T04:20:11.798Z,16.85
2023-02-15T04:25:14.930Z,17.50
2023-02-15T04:30:19.731Z,17.85
2023-02-15T04:35:22.112Z,17.48
2023-02-15T04:40:23.930Z,16.73
2023-02-15T04:45:26.058Z,16.00
2023-02-15T04:50:29.394Z,16.35
2023-02-15T04:55:31.186Z,16.02
2023-02-15T05:00:32.970Z,16.20
2023-02-15T05:05:35.171Z,15.82
2023-02-15T05:10:39.946Z,15.20
2023-02-15T05:15:44.058Z,15.13
2023-02-15T05:20:49.024Z,15.07
2023-02-15T05:26:10.047Z,15.50
2023-02-15T05:31:16.194Z,12.98
2023-02-15T05:36:18.268Z,14.55
2023-02-15T05:41:20.382Z,14.88
2023-02-15T05:46:25.552Z,14.25
2023-02-15T05:51:27.933Z,14.10
2023-02-15T05:56:29.797Z,13.13
2023-02-15T06:01:32.672Z,14.70
2023-02-15T06:06:36.663Z,13.40
2023-02-15T06:11:38.715Z,13.70
2023-02-15T06:16:40.668Z,12.57
2023-02-15T06:21:46.217Z,13.52
2023-02-15T06:26:48.259Z,13.30
2023-02-15T06:31:50.443Z,13.85
2023-02-15T06:36:53.140Z,14.30
2023-02-15T06:41:55.317Z,15.00
2023-02-15T06:46:57.574Z,13.60
2023-02-15T06:52:03.780Z,13.77
2023-02-15T06:57:08.428Z,13.30
2023-02-15T07:02:13.434Z,13.43
2023-02-15T07:07:15.358Z,13.77
2023-02-15T07:12:35.743Z,13.32
2023-02-15T07:17:38.596Z,13.27
2023-02-15T07:22:40.787Z,11.82
2023-02-15T07:27:42.758Z,11.77
2023-02-15T07:33:05.245Z,11.95
2023-02-15T07:38:07.535Z,13.00
2023-02-15T07:43:09.624Z,11.90
2023-02-15T07:48:11.775Z,11.52
2023-02-15T07:53:15.396Z,12.15
2023-02-15T07:58:20.560Z,11.82
2023-02-15T08:03:27.602Z,10.63
2023-02-15T08:08:32.356Z,11.65
2023-02-15T08:13:34.540Z,10.85
2023-02-15T08:18:39.456Z,9.65
2023-02-15T08:23:41.317Z,9.70
2023-02-15T08:28:43.780Z,10.05
2023-02-15T08:33:47.792Z,8.80
2023-02-15T08:38:51.670Z,9.18
2023-02-15T08:43:56.184Z,8.32
2023-02-15T08:48:58.825Z,9.23
2023-02-15T08:54:04.011Z,8.13
2023-02-15T08:59:12.224Z,8.57
2023-02-15T09:04:15.202Z,7.47
2023-02-15T09:09:19.635Z,7.65
2023-02-15T09:14:22.667Z,8.40
2023-02-15T09:19:25.195Z,7.68
2023-02-15T09:24:31.113Z,7.47
2023-02-15T09:29:33.299Z,7.57
2023-02-15T09:34:35.746Z,7.28
2023-02-15T09:39:41.111Z,8.25
2023-02-15T09:45:01.661Z,7.07
2023-02-15T09:50:44.455Z,6.90
2023-02-15T09:56:09.001Z,7.63
2023-02-15T10:01:39.010Z,6.93
2023-02-15T10:07:15.178Z,6.60
2023-02-15T10:12:58.329Z,7.38
2023-02-15T10:18:25.553Z,7.00
2023-02-15T10:23:50.766Z,7.45
2023-02-15T10:29:10.521Z,6.88
2023-02-15T10:34:24.581Z,7.45
2023-02-15T10:39:50.361Z,6.72
2023-02-15T10:45:05.814Z,7.65
2023-02-15T10:50:25.099Z,6.65
2023-02-15T10:55:47.554Z,6.32
2023-02-15T11:01:02.338Z,6.25
2023-02-15T11:06:11.849Z,6.25
2023-02-15T11:11:41.782Z,6.18
2023-02-15T11:16:47.937Z,7.07
2023-02-15T11:22:00.364Z,5.70
2023-02-15T11:27:15.983Z,5.72
2023-02-15T11:32:22.797Z,6.03
2023-02-15T11:37:39.607Z,6.18
2023-02-15T11:42:43.875Z,5.75
2023-02-15T11:47:45.754Z,6.45
2023-02-15T11:52:47.543Z,5.70
2023-02-15T11:58:25.393Z,6.53
2023-02-15T12:03:51.956Z,6.45
2023-02-15T12:09:35.850Z,6.20
2023-02-15T12:14:49.821Z,6.43
2023-02-15T12:19:56.566Z,6.18
2023-02-15T12:25:04.629Z,6.80
2023-02-15T12:30:31.930Z,6.43
2023-02-15T12:35:38.907Z,6.03
2023-02-15T12:40:41.346Z,5.82
2023-02-15T12:45:43.194Z,5.82
2023-02-15T12:50:54.680Z,5.93
2023-02-15T12:55:59.316Z,6.88
2023-02-15T13:01:04.579Z,6.50
2023-02-15T13:06:09.964Z,6.15
2023-02-15T13:11:12.893Z,5.20
2023-02-15T13:16:20.949Z,5.20
2023-02-15T13:21:32.021Z,4.65
2023-02-15T13:26:37.237Z,4.78
2023-02-15T13:31:42.157Z,4.07
2023-02-15T13:37:07.465Z,3.72
2023-02-15T13:42:34.172Z,4.30
2023-02-15T13:47:38.614Z,3.88
2023-02-15T13:52:53.051Z,4.13
2023-02-15T13:58:34.236Z,4.00
2023-02-15T14:03:53.081Z,4.07
2023-02-15T14:09:19.010Z,4.30
2023-02-15T14:14:27.067Z,4.55
2023-02-15T14:19:33.210Z,4.20
2023-02-15T14:25:10.084Z,4.55
2023-02-15T14:30:22.451Z,3.80
2023-02-15T14:35:32.339Z,4.25
2023-02-15T14:41:06.190Z,3.67
2023-02-15T14:46:20.305Z,3.72
2023-02-15T14:51:41.154Z,3.50
2023-02-15T14:57:03.722Z,3.45
2023-02-15T15:02:16.476Z,3.70
2023-02-15T15:07:25.432Z,4.30
2023-02-15T15:12:27.556Z,3.47
2023-02-15T15:17:39.211Z,3.67
2023-02-15T15:22:43.227Z,3.63
2023-02-15T15:27:51.326Z,3.63
2023-02-15T15:32:56.160Z,4.57
2023-02-15T15:38:13.313Z,4.10
2023-02-15T15:44:13.952Z,4.10
2023-02-15T15:49:25.721Z,4.25
2023-02-15T15:54:28.137Z,4.32
2023-02-15T15:59:33.062Z,5.20
2023-02-15T16:04:36.124Z,4.95
2023-02-15T16:09:39.077Z,7.43
2023-02-15T16:14:42.382Z,6.82
2023-02-15T16:19:45.581Z,7.38
2023-02-15T16:24:50.403Z,5.70
2023-02-15T16:29:52.281Z,5.82
2023-02-15T16:35:14.363Z,5.88
2023-02-15T16:40:25.034Z,5.82
2023-02-15T16:45:28.595Z,5.80
2023-02-15T16:50:37.279Z,6.45
2023-02-15T16:55:43.158Z,5.18
2023-02-15T17:00:45.781Z,6.05
2023-02-15T17:06:01.944Z,6.25
2023-02-15T17:11:23.715Z,6.03
2023-02-15T17:16:34.348Z,6.78
2023-02-15T17:21:46.604Z,7.65
2023-02-15T17:26:52.379Z,7.65
2023-02-15T17:31:58.806Z,8.18
2023-02-15T17:37:00.829Z,8.38
2023-02-15T17:42:03.389Z,8.10
2023-02-15T17:47:05.351Z,7.90
2023-02-15T17:52:10.126Z,7.75
2023-02-15T17:57:16.864Z,9.52
2023-02-15T18:02:37.180Z,8.13
2023-02-15T18:07:57.553Z,8.18
2023-02-15T18:12:59.398Z,8.68
2023-02-15T18:18:02.266Z,8.18
2023-02-15T18:23:04.176Z,7.88
2023-02-15T18:28:06.508Z,9.15
2023-02-15T18:33:32.882Z,9.38
2023-02-15T18:38:34.800Z,9.93
2023-02-15T18:43:36.507Z,9.52
2023-02-15T18:48:38.350Z,9.35
2023-02-15T18:53:40.093Z,9.90
2023-02-15T18:58:43.132Z,9.75
2023-02-15T19:03:49.652Z,9.75
2023-02-15T19:08:53.142Z,9.75
2023-02-15T19:13:55.246Z,9.70
2023-02-15T19:18:57.203Z,10.90
2023-02-15T19:24:15.697Z,10.13
2023-02-15T19:29:25.249Z,10.02
2023-02-15T19:34:29.183Z,9.98
2023-02-15T19:39:39.622Z,10.93
2023-02-15T19:44:43.632Z,11.45
2023-02-15T19:49:45.555Z,10.70
2023-02-15T19:54:48.840Z,11.23
2023-02-15T19:59:50.521Z,11.60
2023-02-15T20:04:52.263Z,12.27
2023-02-15T20:09:54.238Z,12.98
2023-02-15T20:14:58.627Z,12.20
2023-02-15T20:20:00.428Z,12.45
2023-02-15T20:25:02.521Z,11.15
2023-02-15T20:30:07.188Z,10.48
2023-02-15T20:35:21.430Z,9.27
2023-02-15T20:40:29.165Z,10.05
2023-02-15T20:45:33.450Z,10.25
2023-02-15T20:50:35.934Z,8.48
2023-02-15T20:55:37.931Z,7.93
2023-02-15T21:00:40.513Z,8.73
2023-02-15T21:05:45.607Z,8.65
2023-02-15T21:10:49.979Z,9.15
2023-02-15T21:15:53.843Z,8.75
2023-02-15T21:20:58.330Z,9.35
2023-02-15T21:26:01.170Z,8.93
2023-02-15T21:31:03.552Z,9.05
2023-02-15T21:36:09.181Z,9.38
2023-02-15T21:41:38.756Z,9.88
2023-02-15T21:46:59.266Z,10.60
2023-02-15T21:52:13.304Z,9.45
2023-02-15T21:57:17.417Z,9.27
2023-02-15T22:02:27.726Z,9.70
2023-02-15T22:07:29.626Z,8.90
2023-02-15T22:12:32.252Z,8.60
2023-02-15T22:17:35.260Z,9.15
2023-02-15T22:22:37.357Z,8.73
2023-02-15T22:27:41.736Z,9.35
2023-02-15T22:32:45.345Z,8.82
2023-02-15T22:37:48.247Z,9.88
2023-02-15T22:42:52.975Z,9.10
2023-02-15T22:48:00.338Z,8.57
2023-02-15T22:53:07.525Z,8.68
2023-02-15T22:58:18.793Z,8.98
2023-02-15T23:03:27.082Z,9.25
2023-02-15T23:08:28.941Z,9.93
2023-02-15T23:13:33.704Z,9.98
2023-02-15T23:18:42.803Z,10.00
2023-02-15T23:23:46.856Z,9.10
2023-02-15T23:28:50.123Z,8.95
2023-02-15T23:33:53.123Z,9.95
2023-02-15T23:38:57.366Z,9.15
2023-02-15T23:44:02.715Z,10.05
2023-02-15T23:49:14.940Z,9.63
2023-02-15T23:54:19.546Z,8.85
2023-02-15T23:59:25.435Z,8.93
